sensor_id;sensor_type;location;lat;lon;timestamp;pressure;altitude;pressure_sealevel;temperature;humidity
75775;BME280;64505;51.458;7.556;2023-04-03T00:02:00;101069.88;;;-0.33;87.23
75775;BME280;64505;51.458;7.556;2023-04-03T00:04:02;101077.53;;;-0.31;87.37
75775;BME280;64505;51.458;7.556;2023-04-03T00:06:03;101075.75;;;-0.31;87.79
75775;BME280;64505;51.458;7.556;2023-04-03T00:08:07;101069.97;;;-0.34;87.59
75775;BME280;64505;51.458;7.556;2023-04-03T00:10:10;101075.16;;;-0.34;87.59
75775;BME280;64505;51.458;7.556;2023-04-03T00:12:12;101076.00;;;-0.34;87.43
75775;BME280;64505;51.458;7.556;2023-04-03T00:14:13;101064.28;;;-0.39;87.73
75775;BME280;64505;51.458;7.556;2023-04-03T00:16:15;101068.91;;;-0.43;86.97
75775;BME280;64505;51.458;7.556;2023-04-03T00:18:17;101065.50;;;-0.43;86.59
75775;BME280;64505;51.458;7.556;2023-04-03T00:20:19;101066.56;;;-0.46;87.00
75775;BME280;64505;51.458;7.556;2023-04-03T00:22:20;101070.81;;;-0.45;87.51
75775;BME280;64505;51.458;7.556;2023-04-03T00:24:22;101064.78;;;-0.45;87.88
75775;BME280;64505;51.458;7.556;2023-04-03T00:26:23;101069.28;;;-0.47;87.54
75775;BME280;64505;51.458;7.556;2023-04-03T00:28:24;101078.00;;;-0.48;87.52
75775;BME280;64505;51.458;7.556;2023-04-03T00:30:26;101072.22;;;-0.52;87.47
75775;BME280;64505;51.458;7.556;2023-04-03T00:32:28;101072.22;;;-0.52;87.96
75775;BME280;64505;51.458;7.556;2023-04-03T00:34:29;101072.22;;;-0.52;87.90
75775;BME280;64505;51.458;7.556;2023-04-03T00:36:31;101074.69;;;-0.51;87.95
75775;BME280;64505;51.458;7.556;2023-04-03T00:38:33;101072.47;;;-0.55;87.61
75775;BME280;64505;51.458;7.556;2023-04-03T00:40:37;101075.06;;;-0.55;87.94
75775;BME280;64505;51.458;7.556;2023-04-03T00:42:41;101077.06;;;-0.59;87.63
75775;BME280;64505;51.458;7.556;2023-04-03T00:46:47;101072.81;;;-0.60;87.36
75775;BME280;64505;51.458;7.556;2023-04-03T00:48:49;101075.53;;;-0.61;87.56
75775;BME280;64505;51.458;7.556;2023-04-03T00:50:51;101078.34;;;-0.64;87.80
75775;BME280;64505;51.458;7.556;2023-04-03T00:52:53;101080.13;;;-0.65;87.73
75775;BME280;64505;51.458;7.556;2023-04-03T00:54:58;101085.44;;;-0.66;87.65
75775;BME280;64505;51.458;7.556;2023-04-03T00:57:03;101080.38;;;-0.68;87.30
75775;BME280;64505;51.458;7.556;2023-04-03T00:59:09;101088.97;;;-0.67;88.61
75775;BME280;64505;51.458;7.556;2023-04-03T01:01:14;101087.47;;;-0.70;87.62
75775;BME280;64505;51.458;7.556;2023-04-03T01:03:17;101087.56;;;-0.71;87.85
75775;BME280;64505;51.458;7.556;2023-04-03T01:05:20;101091.94;;;-0.72;88.01
75775;BME280;64505;51.458;7.556;2023-04-03T01:07:25;101091.09;;;-0.72;87.80
75775;BME280;64505;51.458;7.556;2023-04-03T01:09:28;101092.06;;;-0.73;87.90
75775;BME280;64505;51.458;7.556;2023-04-03T01:11:30;101086.28;;;-0.77;87.38
75775;BME280;64505;51.458;7.556;2023-04-03T01:13:33;101089.69;;;-0.76;87.83
75775;BME280;64505;51.458;7.556;2023-04-03T01:15:34;101089.69;;;-0.76;87.17
75775;BME280;64505;51.458;7.556;2023-04-03T01:17:43;101089.69;;;-0.76;87.55
75775;BME280;64505;51.458;7.556;2023-04-03T01:19:46;101085.19;;;-0.74;87.67
75775;BME280;64505;51.458;7.556;2023-04-03T01:22:15;101091.22;;;-0.74;88.13
75775;BME280;64505;51.458;7.556;2023-04-03T01:24:34;101090.75;;;-0.68;88.81
75775;BME280;64505;51.458;7.556;2023-04-03T01:26:37;101089.91;;;-0.68;88.63
75775;BME280;64505;51.458;7.556;2023-04-03T01:28:38;101085.56;;;-0.68;88.72
75775;BME280;64505;51.458;7.556;2023-04-03T01:33:03;101091.25;;;-0.63;88.67
75775;BME280;64505;51.458;7.556;2023-04-03T01:35:07;101086.88;;;-0.62;88.83
75775;BME280;64505;51.458;7.556;2023-04-03T01:37:09;101092.75;;;-0.60;88.23
75775;BME280;64505;51.458;7.556;2023-04-03T01:39:11;101104.00;;;-0.60;88.69
75775;BME280;64505;51.458;7.556;2023-04-03T01:41:12;101093.59;;;-0.60;88.11
75775;BME280;64505;51.458;7.556;2023-04-03T01:43:14;101094.44;;;-0.59;88.13
75775;BME280;64505;51.458;7.556;2023-04-03T01:45:16;101096.19;;;-0.60;88.15
75775;BME280;64505;51.458;7.556;2023-04-03T01:47:17;101094.09;;;-0.55;88.12
75775;BME280;64505;51.458;7.556;2023-04-03T01:49:19;101092.78;;;-0.49;87.71
75775;BME280;64505;51.458;7.556;2023-04-03T01:51:20;101088.50;;;-0.50;87.76
75775;BME280;64505;51.458;7.556;2023-04-03T01:53:22;101090.53;;;-0.54;87.94
75775;BME280;64505;51.458;7.556;2023-04-03T01:55:23;101094.53;;;-0.50;87.01
75775;BME280;64505;51.458;7.556;2023-04-03T01:57:25;101092.78;;;-0.49;87.96
75775;BME280;64505;51.458;7.556;2023-04-03T01:59:26;101089.47;;;-0.51;87.65
75775;BME280;64505;51.458;7.556;2023-04-03T02:01:28;101089.47;;;-0.51;87.03
75775;BME280;64505;51.458;7.556;2023-04-03T02:03:29;101091.09;;;-0.50;87.36
75775;BME280;64505;51.458;7.556;2023-04-03T02:05:32;101086.75;;;-0.50;87.49
75775;BME280;64505;51.458;7.556;2023-04-03T02:07:34;101089.47;;;-0.51;87.52
75775;BME280;64505;51.458;7.556;2023-04-03T02:09:35;101093.84;;;-0.52;87.55
75775;BME280;64505;51.458;7.556;2023-04-03T02:11:37;101090.28;;;-0.51;87.37
75775;BME280;64505;51.458;7.556;2023-04-03T02:13:38;101089.34;;;-0.50;87.45
75775;BME280;64505;51.458;7.556;2023-04-03T02:15:40;101093.00;;;-0.52;87.57
75775;BME280;64505;51.458;7.556;2023-04-03T02:17:41;101093.84;;;-0.52;87.49
75775;BME280;64505;51.458;7.556;2023-04-03T02:19:43;101094.44;;;-0.48;88.13
75775;BME280;64505;51.458;7.556;2023-04-03T02:21:44;101099.75;;;-0.50;86.99
75775;BME280;64505;51.458;7.556;2023-04-03T02:23:46;101103.06;;;-0.47;86.64
75775;BME280;64505;51.458;7.556;2023-04-03T02:25:47;101101.16;;;-0.45;86.34
75775;BME280;64505;51.458;7.556;2023-04-03T02:27:50;101104.69;;;-0.46;86.81
75775;BME280;64505;51.458;7.556;2023-04-03T02:29:51;101109.91;;;-0.35;87.51
75775;BME280;64505;51.458;7.556;2023-04-03T02:31:53;101100.81;;;-0.41;86.89
75775;BME280;64505;51.458;7.556;2023-04-03T02:33:54;101104.34;;;-0.42;87.22
75775;BME280;64505;51.458;7.556;2023-04-03T02:35:56;101110.47;;;-0.43;87.22
75775;BME280;64505;51.458;7.556;2023-04-03T02:37:58;101112.03;;;-0.40;87.55
75775;BME280;64505;51.458;7.556;2023-04-03T02:40:00;101112.28;;;-0.43;87.12
75775;BME280;64505;51.458;7.556;2023-04-03T02:42:01;101116.50;;;-0.42;86.84
75775;BME280;64505;51.458;7.556;2023-04-03T02:44:05;101114.03;;;-0.44;87.28
75775;BME280;64505;51.458;7.556;2023-04-03T02:46:08;101110.72;;;-0.46;87.55
75775;BME280;64505;51.458;7.556;2023-04-03T02:48:09;101116.75;;;-0.45;87.75
75775;BME280;64505;51.458;7.556;2023-04-03T02:50:11;101114.88;;;-0.43;86.99
75775;BME280;64505;51.458;7.556;2023-04-03T02:52:13;101121.00;;;-0.44;87.28
75775;BME280;64505;51.458;7.556;2023-04-03T02:54:15;101118.50;;;-0.46;87.26
75775;BME280;64505;51.458;7.556;2023-04-03T02:56:17;101113.91;;;-0.42;86.47
75775;BME280;64505;51.458;7.556;2023-04-03T02:58:19;101120.06;;;-0.43;86.86
75775;BME280;64505;51.458;7.556;2023-04-03T03:00:20;101112.38;;;-0.45;86.65
75775;BME280;64505;51.458;7.556;2023-04-03T03:02:22;101114.03;;;-0.44;87.20
75775;BME280;64505;51.458;7.556;2023-04-03T03:04:23;101108.03;;;-0.44;86.81
75775;BME280;64505;51.458;7.556;2023-04-03T03:06:25;101112.97;;;-0.41;87.23
75775;BME280;64505;51.458;7.556;2023-04-03T03:08:26;101113.31;;;-0.46;86.98
75775;BME280;64505;51.458;7.556;2023-04-03T03:10:28;101120.53;;;-0.50;86.85
75775;BME280;64505;51.458;7.556;2023-04-03T03:12:29;101117.94;;;-0.50;86.79
75775;BME280;64505;51.458;7.556;2023-04-03T03:14:33;101121.59;;;-0.52;87.32
75775;BME280;64505;51.458;7.556;2023-04-03T03:16:34;101119.00;;;-0.52;86.72
75775;BME280;64505;51.458;7.556;2023-04-03T03:18:36;101120.88;;;-0.54;86.87
75775;BME280;64505;51.458;7.556;2023-04-03T03:20:37;101115.66;;;-0.54;87.19
75775;BME280;64505;51.458;7.556;2023-04-03T03:22:39;101124.19;;;-0.52;86.85
75775;BME280;64505;51.458;7.556;2023-04-03T03:24:40;101114.13;;;-0.57;87.01
75775;BME280;64505;51.458;7.556;2023-04-03T03:26:42;101121.09;;;-0.57;86.76
75775;BME280;64505;51.458;7.556;2023-04-03T03:28:43;101123.84;;;-0.59;86.99
75775;BME280;64505;51.458;7.556;2023-04-03T03:30:46;101122.16;;;-0.60;87.19
75775;BME280;64505;51.458;7.556;2023-04-03T03:32:48;101124.19;;;-0.63;86.83
75775;BME280;64505;51.458;7.556;2023-04-03T03:34:50;101117.22;;;-0.63;87.29
75775;BME280;64505;51.458;7.556;2023-04-03T03:36:52;101116.50;;;-0.65;87.17
75775;BME280;64505;51.458;7.556;2023-04-03T03:38:53;101120.97;;;-0.67;87.10
75775;BME280;64505;51.458;7.556;2023-04-03T03:40:55;101116.72;;;-0.68;86.49
75775;BME280;64505;51.458;7.556;2023-04-03T03:42:56;101114.38;;;-0.71;86.74
75775;BME280;64505;51.458;7.556;2023-04-03T03:44:57;101123.09;;;-0.72;86.64
75775;BME280;64505;51.458;7.556;2023-04-03T03:46:59;101128.28;;;-0.72;87.12
75775;BME280;64505;51.458;7.556;2023-04-03T03:49:01;101123.22;;;-0.73;87.16
75775;BME280;64505;51.458;7.556;2023-04-03T03:51:02;101122.25;;;-0.72;87.11
75775;BME280;64505;51.458;7.556;2023-04-03T03:53:04;101117.31;;;-0.75;86.76
75775;BME280;64505;51.458;7.556;2023-04-03T03:55:06;101118.38;;;-0.78;86.86
75775;BME280;64505;51.458;7.556;2023-04-03T03:57:08;101119.44;;;-0.80;86.73
75775;BME280;64505;51.458;7.556;2023-04-03T03:59:11;101111.66;;;-0.80;86.95
75775;BME280;64505;51.458;7.556;2023-04-03T04:01:13;101124.72;;;-0.82;86.96
75775;BME280;64505;51.458;7.556;2023-04-03T04:03:15;101124.97;;;-0.85;87.11
75775;BME280;64505;51.458;7.556;2023-04-03T04:05:16;101125.78;;;-0.84;86.54
75775;BME280;64505;51.458;7.556;2023-04-03T04:07:18;101132.06;;;-0.87;87.53
75775;BME280;64505;51.458;7.556;2023-04-03T04:09:20;101123.53;;;-0.89;87.43
75775;BME280;64505;51.458;7.556;2023-04-03T04:11:21;101125.53;;;-0.92;87.05
75775;BME280;64505;51.458;7.556;2023-04-03T04:13:23;101130.81;;;-0.94;87.35
75775;BME280;64505;51.458;7.556;2023-04-03T04:15:24;101128.97;;;-0.92;87.14
75775;BME280;64505;51.458;7.556;2023-04-03T04:17:26;101136.03;;;-0.94;87.10
75775;BME280;64505;51.458;7.556;2023-04-03T04:19:28;101124.00;;;-0.95;87.42
75775;BME280;64505;51.458;7.556;2023-04-03T04:21:29;101123.50;;;-1.00;87.16
75775;BME280;64505;51.458;7.556;2023-04-03T04:23:31;101127.03;;;-1.01;87.71
75775;BME280;64505;51.458;7.556;2023-04-03T04:25:32;101127.03;;;-1.01;87.08
75775;BME280;64505;51.458;7.556;2023-04-03T04:27:34;101124.66;;;-1.04;87.52
75775;BME280;64505;51.458;7.556;2023-04-03T04:29:35;101133.44;;;-1.05;87.08
75775;BME280;64505;51.458;7.556;2023-04-03T04:31:38;101127.28;;;-1.04;86.91
75775;BME280;64505;51.458;7.556;2023-04-03T04:33:39;101131.63;;;-1.05;87.57
75775;BME280;64505;51.458;7.556;2023-04-03T04:35:42;101133.28;;;-1.04;87.61
75775;BME280;64505;51.458;7.556;2023-04-03T04:37:44;101134.22;;;-1.05;88.00
75775;BME280;64505;51.458;7.556;2023-04-03T04:39:46;101149.09;;;-1.07;87.41
75775;BME280;64505;51.458;7.556;2023-04-03T04:41:47;101140.63;;;-1.09;87.22
75775;BME280;64505;51.458;7.556;2023-04-03T04:43:49;101147.78;;;-1.12;87.34
75775;BME280;64505;51.458;7.556;2023-04-03T04:46:00;101140.00;;;-1.12;88.12
75775;BME280;64505;51.458;7.556;2023-04-03T04:48:03;101146.13;;;-1.13;87.52
75775;BME280;64505;51.458;7.556;2023-04-03T04:50:05;101147.91;;;-1.14;87.61
75775;BME280;64505;51.458;7.556;2023-04-03T04:52:06;101153.19;;;-1.15;88.07
75775;BME280;64505;51.458;7.556;2023-04-03T04:54:08;101157.34;;;-1.13;87.59
75775;BME280;64505;51.458;7.556;2023-04-03T04:56:09;101154.75;;;-1.13;88.03
75775;BME280;64505;51.458;7.556;2023-04-03T04:58:11;101153.09;;;-1.14;88.11
75775;BME280;64505;51.458;7.556;2023-04-03T05:00:13;101154.03;;;-1.15;87.72
75775;BME280;64505;51.458;7.556;2023-04-03T05:02:14;101156.75;;;-1.16;87.54
75775;BME280;64505;51.458;7.556;2023-04-03T05:04:16;101160.13;;;-1.16;87.71
75775;BME280;64505;51.458;7.556;2023-04-03T05:06:18;101169.50;;;-1.13;87.76
75775;BME280;64505;51.458;7.556;2023-04-03T05:08:19;101164.31;;;-1.13;88.23
75775;BME280;64505;51.458;7.556;2023-04-03T05:10:21;101170.31;;;-1.13;87.80
75775;BME280;64505;51.458;7.556;2023-04-03T05:12:22;101168.75;;;-1.15;88.01
75775;BME280;64505;51.458;7.556;2023-04-03T05:14:24;101163.56;;;-1.15;88.09
75775;BME280;64505;51.458;7.556;2023-04-03T05:16:25;101169.50;;;-1.13;88.12
75775;BME280;64505;51.458;7.556;2023-04-03T05:18:27;101168.75;;;-1.15;87.73
75775;BME280;64505;51.458;7.556;2023-04-03T05:20:28;101176.44;;;-1.14;87.92
75775;BME280;64505;51.458;7.556;2023-04-03T05:22:30;101177.28;;;-1.13;88.03
75775;BME280;64505;51.458;7.556;2023-04-03T05:24:32;101172.56;;;-1.08;88.05
75775;BME280;64505;51.458;7.556;2023-04-03T05:26:34;101179.41;;;-1.07;88.33
75775;BME280;64505;51.458;7.556;2023-04-03T05:28:36;101186.97;;;-1.04;88.03
75775;BME280;64505;51.458;7.556;2023-04-03T05:30:37;101191.22;;;-1.03;87.71
75775;BME280;64505;51.458;7.556;2023-04-03T05:32:39;101190.16;;;-1.01;87.33
75775;BME280;64505;51.458;7.556;2023-04-03T05:34:41;101188.31;;;-0.98;87.35
75775;BME280;64505;51.458;7.556;2023-04-03T05:36:43;101196.81;;;-0.96;87.83
75775;BME280;64505;51.458;7.556;2023-04-03T05:38:44;101197.41;;;-0.93;86.95
75775;BME280;64505;51.458;7.556;2023-04-03T05:40:46;101193.88;;;-0.92;87.18
75775;BME280;64505;51.458;7.556;2023-04-03T05:42:47;101198.84;;;-0.89;87.45
75775;BME280;64505;51.458;7.556;2023-04-03T05:44:49;101202.25;;;-0.88;87.19
75775;BME280;64505;51.458;7.556;2023-04-03T05:46:51;101203.47;;;-0.81;86.72
75775;BME280;64505;51.458;7.556;2023-04-03T05:48:52;101208.66;;;-0.81;86.70
75775;BME280;64505;51.458;7.556;2023-04-03T05:50:54;101215.28;;;-0.77;86.63
75775;BME280;64505;51.458;7.556;2023-04-03T05:52:58;101211.75;;;-0.76;86.60
75775;BME280;64505;51.458;7.556;2023-04-03T05:55:00;101213.28;;;-0.74;87.13
75775;BME280;64505;51.458;7.556;2023-04-03T05:57:02;101218.03;;;-0.68;87.06
75775;BME280;64505;51.458;7.556;2023-04-03T05:59:03;101213.66;;;-0.67;86.47
75775;BME280;64505;51.458;7.556;2023-04-03T06:01:05;101218.53;;;-0.63;86.66
75775;BME280;64505;51.458;7.556;2023-04-03T06:03:07;101222.78;;;-0.62;86.43
75775;BME280;64505;51.458;7.556;2023-04-03T06:05:09;101221.59;;;-0.58;86.18
75775;BME280;64505;51.458;7.556;2023-04-03T06:07:14;101224.91;;;-0.56;85.91
75775;BME280;64505;51.458;7.556;2023-04-03T06:09:19;101230.56;;;-0.51;85.96
75775;BME280;64505;51.458;7.556;2023-04-03T06:11:21;101228.38;;;-0.44;86.17
75775;BME280;64505;51.458;7.556;2023-04-03T06:13:23;101235.94;;;-0.41;85.43
75775;BME280;64505;51.458;7.556;2023-04-03T06:15:24;101231.44;;;-0.39;85.29
75775;BME280;64505;51.458;7.556;2023-04-03T06:17:26;101230.41;;;-0.36;85.45
75775;BME280;64505;51.458;7.556;2023-04-03T06:19:28;101234.75;;;-0.37;85.28
75775;BME280;64505;51.458;7.556;2023-04-03T06:21:30;101238.56;;;-0.30;85.33
75775;BME280;64505;51.458;7.556;2023-04-03T06:23:31;101239.50;;;-0.31;84.28
75775;BME280;64505;51.458;7.556;2023-04-03T06:25:34;101239.97;;;-0.26;85.08
75775;BME280;64505;51.458;7.556;2023-04-03T06:27:35;101232.28;;;-0.27;84.58
75775;BME280;64505;51.458;7.556;2023-04-03T06:29:37;101234.56;;;-0.23;84.29
75775;BME280;64505;51.458;7.556;2023-04-03T06:31:38;101243.03;;;-0.21;83.87
75775;BME280;64505;51.458;7.556;2023-04-03T06:33:40;101244.38;;;-0.15;84.64
75775;BME280;64505;51.458;7.556;2023-04-03T06:35:41;101240.00;;;-0.15;84.28
75775;BME280;64505;51.458;7.556;2023-04-03T06:37:43;101238.69;;;-0.09;83.69
75775;BME280;64505;51.458;7.556;2023-04-03T06:39:44;101239.19;;;-0.04;83.65
75775;BME280;64505;51.458;7.556;2023-04-03T06:41:46;101232.91;;;-0.02;83.81
75775;BME280;64505;51.458;7.556;2023-04-03T06:43:48;101240.38;;;0.03;83.42
75775;BME280;64505;51.458;7.556;2023-04-03T06:45:49;101244.25;;;0.09;83.52
75775;BME280;64505;51.458;7.556;2023-04-03T06:47:51;101244.16;;;0.10;82.97
75775;BME280;64505;51.458;7.556;2023-04-03T06:49:52;101250.78;;;0.14;83.06
75775;BME280;64505;51.458;7.556;2023-04-03T06:51:53;101242.84;;;0.16;82.84
75775;BME280;64505;51.458;7.556;2023-04-03T06:53:57;101241.66;;;0.20;82.14
75775;BME280;64505;51.458;7.556;2023-04-03T06:55:59;101243.56;;;0.18;82.22
75775;BME280;64505;51.458;7.556;2023-04-03T06:58:01;101247.22;;;0.26;82.83
75775;BME280;64505;51.458;7.556;2023-04-03T07:00:04;101254.19;;;0.26;81.87
75775;BME280;64505;51.458;7.556;2023-04-03T07:02:09;101250.88;;;0.35;82.15
75775;BME280;64505;51.458;7.556;2023-04-03T07:04:11;101253.13;;;0.39;82.54
75775;BME280;64505;51.458;7.556;2023-04-03T07:06:13;101255.25;;;0.45;81.73
75775;BME280;64505;51.458;7.556;2023-04-03T07:08:15;101246.50;;;0.46;81.33
75775;BME280;64505;51.458;7.556;2023-04-03T07:10:17;101254.16;;;0.48;80.75
75775;BME280;64505;51.458;7.556;2023-04-03T07:12:19;101255.72;;;0.51;81.17
75775;BME280;64505;51.458;7.556;2023-04-03T07:14:20;101260.31;;;0.58;81.39
75775;BME280;64505;51.458;7.556;2023-04-03T07:16:22;101261.84;;;0.61;80.73
75775;BME280;64505;51.458;7.556;2023-04-03T07:18:24;101268.47;;;0.65;80.48
75775;BME280;64505;51.458;7.556;2023-04-03T07:20:25;101264.19;;;0.75;80.28
75775;BME280;64505;51.458;7.556;2023-04-03T07:22:28;101264.56;;;0.70;80.41
75775;BME280;64505;51.458;7.556;2023-04-03T07:24:29;101269.75;;;0.81;80.33
75775;BME280;64505;51.458;7.556;2023-04-03T07:26:31;101271.97;;;0.86;80.31
75775;BME280;64505;51.458;7.556;2023-04-03T07:28:32;101276.94;;;0.89;80.21
75775;BME280;64505;51.458;7.556;2023-04-03T07:30:34;101280.25;;;0.91;79.78
75775;BME280;64505;51.458;7.556;2023-04-03T07:32:36;101278.94;;;0.96;79.63
75775;BME280;64505;51.458;7.556;2023-04-03T07:34:37;101284.47;;;1.03;79.47
75775;BME280;64505;51.458;7.556;2023-04-03T07:36:39;101286.16;;;1.04;78.88
75775;BME280;64505;51.458;7.556;2023-04-03T07:38:40;101292.41;;;1.02;78.59
75775;BME280;64505;51.458;7.556;2023-04-03T07:40:49;101288.25;;;1.10;78.57
75775;BME280;64505;51.458;7.556;2023-04-03T07:42:51;101291.41;;;1.25;79.36
75775;BME280;64505;51.458;7.556;2023-04-03T07:44:53;101287.44;;;1.30;78.65
75775;BME280;64505;51.458;7.556;2023-04-03T07:46:55;101293.00;;;1.37;79.24
75775;BME280;64505;51.458;7.556;2023-04-03T07:48:57;101282.59;;;1.37;78.21
75775;BME280;64505;51.458;7.556;2023-04-03T07:51:00;101286.09;;;1.47;79.02
75775;BME280;64505;51.458;7.556;2023-04-03T07:53:02;101290.78;;;1.53;78.13
75775;BME280;64505;51.458;7.556;2023-04-03T07:55:04;101292.19;;;1.57;77.79
75775;BME280;64505;51.458;7.556;2023-04-03T07:57:07;101279.63;;;1.62;77.28
75775;BME280;64505;51.458;7.556;2023-04-03T07:59:09;101285.09;;;1.59;76.74
75775;BME280;64505;51.458;7.556;2023-04-03T08:01:11;101290.47;;;1.67;76.74
75775;BME280;64505;51.458;7.556;2023-04-03T08:03:14;101279.56;;;1.73;76.85
75775;BME280;64505;51.458;7.556;2023-04-03T08:05:20;101283.69;;;1.76;76.19
75775;BME280;64505;51.458;7.556;2023-04-03T08:07:22;101285.53;;;1.85;76.95
75775;BME280;64505;51.458;7.556;2023-04-03T08:09:23;101292.59;;;1.94;76.28
75775;BME280;64505;51.458;7.556;2023-04-03T08:11:24;101289.47;;;2.00;76.51
75775;BME280;64505;51.458;7.556;2023-04-03T08:13:29;101286.22;;;2.08;76.56
75775;BME280;64505;51.458;7.556;2023-04-03T08:15:32;101292.44;;;2.16;75.73
75775;BME280;64505;51.458;7.556;2023-04-03T08:17:34;101287.25;;;2.26;77.25
75775;BME280;64505;51.458;7.556;2023-04-03T08:19:35;101296.03;;;2.25;75.29
75775;BME280;64505;51.458;7.556;2023-04-03T08:21:37;101292.94;;;2.10;73.17
75775;BME280;64505;51.458;7.556;2023-04-03T08:23:39;101298.25;;;2.29;74.48
75775;BME280;64505;51.458;7.556;2023-04-03T08:25:43;101300.66;;;2.42;74.63
75775;BME280;64505;51.458;7.556;2023-04-03T08:27:44;101299.19;;;2.49;73.35
75775;BME280;64505;51.458;7.556;2023-04-03T08:29:46;101300.91;;;2.39;73.11
75775;BME280;64505;51.458;7.556;2023-04-03T08:31:48;101296.56;;;2.49;73.71
75775;BME280;64505;51.458;7.556;2023-04-03T08:33:51;101297.13;;;2.53;72.49
75775;BME280;64505;51.458;7.556;2023-04-03T08:35:52;101290.31;;;2.71;72.77
75775;BME280;64505;51.458;7.556;2023-04-03T08:37:54;101293.75;;;2.71;70.47
75775;BME280;64505;51.458;7.556;2023-04-03T08:39:55;101293.88;;;2.70;71.02
75775;BME280;64505;51.458;7.556;2023-04-03T08:41:58;101296.50;;;2.70;70.57
75775;BME280;64505;51.458;7.556;2023-04-03T08:44:25;101288.69;;;2.79;71.98
75775;BME280;64505;51.458;7.556;2023-04-03T08:47:38;101286.50;;;2.84;70.13
75775;BME280;64505;51.458;7.556;2023-04-03T08:49:20;101289.00;;;2.95;69.72
75775;BME280;64505;51.458;7.556;2023-04-03T08:51:24;101296.16;;;3.03;69.80
75775;BME280;64505;51.458;7.556;2023-04-03T08:53:30;101282.53;;;3.09;70.04
75775;BME280;64505;51.458;7.556;2023-04-03T08:57:39;101286.16;;;3.18;69.14
75775;BME280;64505;51.458;7.556;2023-04-03T08:59:41;101298.53;;;3.25;69.74
75775;BME280;64505;51.458;7.556;2023-04-03T09:01:43;101295.91;;;3.35;68.50
75775;BME280;64505;51.458;7.556;2023-04-03T09:03:45;101301.41;;;3.32;66.91
75775;BME280;64505;51.458;7.556;2023-04-03T09:05:54;101293.00;;;3.47;67.96
75775;BME280;64505;51.458;7.556;2023-04-03T09:08:07;101295.22;;;3.62;67.80
75775;BME280;64505;51.458;7.556;2023-04-03T09:10:15;101294.66;;;3.68;67.49
75775;BME280;64505;51.458;7.556;2023-04-03T09:12:27;101291.34;;;3.66;66.65
75775;BME280;64505;51.458;7.556;2023-04-03T09:14:39;101286.66;;;3.69;64.92
75775;BME280;64505;51.458;7.556;2023-04-03T09:19:35;101294.34;;;3.90;66.34
75775;BME280;64505;51.458;7.556;2023-04-03T09:21:39;101295.16;;;4.00;66.34
75775;BME280;64505;51.458;7.556;2023-04-03T09:23:50;101295.00;;;4.02;66.10
75775;BME280;64505;51.458;7.556;2023-04-03T09:25:58;101300.53;;;4.08;64.84
75775;BME280;64505;51.458;7.556;2023-04-03T09:28:03;101292.22;;;4.13;64.73
75775;BME280;64505;51.458;7.556;2023-04-03T09:30:05;101279.28;;;4.11;65.07
75775;BME280;64505;51.458;7.556;2023-04-03T09:32:37;101296.84;;;4.28;64.39
75775;BME280;64505;51.458;7.556;2023-04-03T09:34:41;101289.78;;;4.38;65.71
75775;BME280;64505;51.458;7.556;2023-04-03T09:36:45;101283.88;;;4.36;64.94
75775;BME280;64505;51.458;7.556;2023-04-03T09:39:05;101288.47;;;4.25;63.46
75775;BME280;64505;51.458;7.556;2023-04-03T09:41:16;101287.16;;;4.38;63.49
75775;BME280;64505;51.458;7.556;2023-04-03T09:43:30;101278.47;;;4.38;64.39
75775;BME280;64505;51.458;7.556;2023-04-03T09:45:33;101291.59;;;4.65;64.38
75775;BME280;64505;51.458;7.556;2023-04-03T09:47:36;101281.72;;;4.59;62.78
75775;BME280;64505;51.458;7.556;2023-04-03T09:49:37;101289.28;;;4.62;62.72
75775;BME280;64505;51.458;7.556;2023-04-03T09:51:39;101282.84;;;4.74;63.71
75775;BME280;64505;51.458;7.556;2023-04-03T09:53:43;101285.75;;;4.81;63.36
75775;BME280;64505;51.458;7.556;2023-04-03T09:55:45;101280.56;;;4.89;63.19
75775;BME280;64505;51.458;7.556;2023-04-03T09:57:48;101276.25;;;4.97;62.69
75775;BME280;64505;51.458;7.556;2023-04-03T09:59:58;101267.94;;;5.02;62.55
75775;BME280;64505;51.458;7.556;2023-04-03T10:04:18;101269.13;;;5.25;63.91
75775;BME280;64505;51.458;7.556;2023-04-03T10:06:23;101266.50;;;5.25;60.51
75775;BME280;64505;51.458;7.556;2023-04-03T10:10:29;101258.47;;;5.62;62.71
75775;BME280;64505;51.458;7.556;2023-04-03T10:12:31;101251.53;;;5.53;58.32
75775;BME280;64505;51.458;7.556;2023-04-03T10:14:34;101255.56;;;5.47;59.04
75775;BME280;64505;51.458;7.556;2023-04-03T10:16:41;101263.19;;;5.59;57.85
75775;BME280;64505;51.458;7.556;2023-04-03T10:21:06;101253.34;;;5.78;58.89
75775;BME280;64505;51.458;7.556;2023-04-03T10:23:31;101249.97;;;5.86;56.05
75775;BME280;64505;51.458;7.556;2023-04-03T10:25:45;101247.34;;;5.86;54.79
75775;BME280;64505;51.458;7.556;2023-04-03T10:28:04;101239.81;;;5.91;53.95
75775;BME280;64505;51.458;7.556;2023-04-03T10:30:36;101239.69;;;6.01;54.88
75775;BME280;64505;51.458;7.556;2023-04-03T10:38:20;101248.28;;;6.44;55.58
75775;BME280;64505;51.458;7.556;2023-04-03T10:40:20;101237.31;;;6.15;50.33
75775;BME280;64505;51.458;7.556;2023-04-03T10:42:33;101246.94;;;6.32;50.89
75775;BME280;64505;51.458;7.556;2023-04-03T10:44:59;101248.09;;;6.38;52.53
75775;BME280;64505;51.458;7.556;2023-04-03T10:47:18;101241.97;;;6.29;49.01
75775;BME280;64505;51.458;7.556;2023-04-03T10:49:37;101245.41;;;6.64;51.97
75775;BME280;64505;51.458;7.556;2023-04-03T10:51:47;101232.28;;;6.64;50.40
75775;BME280;64505;51.458;7.556;2023-04-03T10:53:56;101231.56;;;6.46;49.85
75775;BME280;64505;51.458;7.556;2023-04-03T10:58:18;101239.13;;;6.49;48.30
75775;BME280;64505;51.458;7.556;2023-04-03T11:00:38;101233.78;;;6.74;52.40
75775;BME280;64505;51.458;7.556;2023-04-03T11:02:54;101240.38;;;6.86;53.79
75775;BME280;64505;51.458;7.556;2023-04-03T11:05:15;101225.13;;;6.90;50.32
75775;BME280;64505;51.458;7.556;2023-04-03T11:07:22;101225.78;;;7.00;52.77
75775;BME280;64505;51.458;7.556;2023-04-03T11:09:32;101220.16;;;6.95;49.87
75775;BME280;64505;51.458;7.556;2023-04-03T11:11:39;101224.47;;;7.04;51.26
75775;BME280;64505;51.458;7.556;2023-04-03T11:14:03;101219.38;;;7.11;50.04